createdAt,value
2023-05-10T00:02:25.680Z,2.85
2023-05-10T00:04:53.351Z,2.22
2023-05-10T00:07:20.201Z,3.25
2023-05-10T00:09:47.005Z,2.95
2023-05-10T00:12:13.909Z,3.08
2023-05-10T00:15:00.707Z,2.13
2023-05-10T00:17:27.556Z,4.28
2023-05-10T00:22:38.495Z,3.70
2023-05-10T00:25:05.907Z,3.40
2023-05-10T00:27:32.709Z,4.55
2023-05-10T00:29:59.531Z,3.28
2023-05-10T00:32:26.328Z,4.13
2023-05-10T00:34:53.077Z,3.67
2023-05-10T00:37:19.874Z,5.13
2023-05-10T00:39:46.691Z,3.75
2023-05-10T00:42:13.486Z,3.13
2023-05-10T00:44:41.861Z,3.80
2023-05-10T00:47:09.295Z,4.30
2023-05-10T00:49:54.750Z,4.10
2023-05-10T00:52:21.800Z,4.80
2023-05-10T00:54:48.743Z,3.33
2023-05-10T00:57:15.949Z,4.43
2023-05-10T00:59:43.905Z,4.32
2023-05-10T01:02:10.828Z,4.70
2023-05-10T01:04:38.850Z,3.40
2023-05-10T01:07:05.782Z,4.55
2023-05-10T01:09:33.883Z,4.20
2023-05-10T01:12:01.977Z,3.58
2023-05-10T01:14:30.180Z,4.97
2023-05-10T01:16:57.298Z,4.55
2023-05-10T01:19:43.253Z,4.03
2023-05-10T01:22:35.784Z,3.80
2023-05-10T01:25:21.167Z,6.55
2023-05-10T01:28:45.010Z,5.55
2023-05-10T01:31:55.447Z,4.05
2023-05-10T01:34:36.197Z,4.20
2023-05-10T01:37:14.633Z,3.25
2023-05-10T01:39:56.210Z,3.15
2023-05-10T01:42:34.773Z,2.50
2023-05-10T01:45:07.829Z,2.35
2023-05-10T01:47:44.870Z,3.30
2023-05-10T01:50:23.559Z,3.35
2023-05-10T01:52:56.415Z,3.45
2023-05-10T01:55:27.108Z,3.15
2023-05-10T01:58:01.377Z,7.20
2023-05-10T02:00:30.906Z,3.83
2023-05-10T02:02:58.873Z,4.75
2023-05-10T02:05:28.385Z,3.10
2023-05-10T02:07:56.537Z,4.75
2023-05-10T02:10:23.397Z,4.60
2023-05-10T02:12:51.834Z,4.43
2023-05-10T02:15:23.547Z,4.63
2023-05-10T02:17:50.847Z,3.00
2023-05-10T02:20:19.645Z,3.30
2023-05-10T02:22:49.680Z,4.53
2023-05-10T02:25:20.352Z,4.72
2023-05-10T02:27:49.467Z,5.25
2023-05-10T02:30:17.816Z,5.80
2023-05-10T02:32:46.106Z,4.55
2023-05-10T02:35:13.812Z,4.45
2023-05-10T02:37:42.561Z,3.80
2023-05-10T02:40:10.394Z,3.85
2023-05-10T02:42:39.770Z,2.90
2023-05-10T02:45:12.091Z,1.92
2023-05-10T02:47:39.514Z,2.17
2023-05-10T02:50:07.445Z,3.50
2023-05-10T02:53:07.764Z,3.08
2023-05-10T02:55:39.115Z,3.28
2023-05-10T02:58:06.517Z,3.05
2023-05-10T03:00:33.572Z,3.95
2023-05-10T03:03:00.445Z,2.85
2023-05-10T03:05:28.607Z,3.03
2023-05-10T03:07:57.445Z,2.00
2023-05-10T03:10:30.423Z,4.03
2023-05-10T03:13:12.191Z,3.38
2023-05-10T03:16:05.210Z,3.30
2023-05-10T03:18:43.092Z,2.85
2023-05-10T03:21:13.540Z,3.28
2023-05-10T03:24:09.271Z,3.33
2023-05-10T03:26:39.778Z,3.95
2023-05-10T03:29:15.927Z,3.53
2023-05-10T03:31:43.264Z,4.32
2023-05-10T03:34:10.253Z,4.88
2023-05-10T03:36:37.192Z,7.57
2023-05-10T03:39:03.991Z,7.25
2023-05-10T03:41:31.173Z,4.53
2023-05-10T03:43:58.203Z,5.90
2023-05-10T03:46:25.157Z,7.55
2023-05-10T03:48:52.093Z,6.70
2023-05-10T03:51:18.839Z,7.35
2023-05-10T03:53:46.022Z,8.25
2023-05-10T03:56:13.342Z,8.05
2023-05-10T03:58:40.142Z,8.05
2023-05-10T04:01:06.937Z,8.63
2023-05-10T04:03:33.937Z,7.97
2023-05-10T04:06:02.615Z,7.75
2023-05-10T04:08:30.045Z,8.95
2023-05-10T04:11:11.523Z,8.23
2023-05-10T04:13:57.626Z,7.32
2023-05-10T04:16:24.461Z,8.88
2023-05-10T04:18:51.542Z,8.77
2023-05-10T04:21:37.561Z,7.50
2023-05-10T04:24:04.646Z,7.30
2023-05-10T04:26:32.406Z,6.05
2023-05-10T04:28:59.206Z,5.68
2023-05-10T04:31:26.070Z,5.35
2023-05-10T04:33:53.290Z,6.15
2023-05-10T04:36:20.115Z,4.65
2023-05-10T04:38:46.990Z,4.55
2023-05-10T04:41:13.840Z,5.50
2023-05-10T04:43:40.611Z,4.80
2023-05-10T04:46:08.550Z,4.65
2023-05-10T04:48:35.586Z,4.03
2023-05-10T04:51:02.479Z,3.35
2023-05-10T04:53:29.253Z,3.72
2023-05-10T04:55:56.425Z,3.97
2023-05-10T04:58:42.041Z,3.38
2023-05-10T05:01:10.514Z,3.63
2023-05-10T05:03:37.918Z,3.22
2023-05-10T05:06:05.205Z,3.30
2023-05-10T05:08:32.286Z,2.85
2023-05-10T05:11:00.408Z,2.30
2023-05-10T05:13:45.911Z,2.15
2023-05-10T05:16:12.756Z,2.42
2023-05-10T05:18:40.038Z,2.45
2023-05-10T05:21:17.841Z,2.42
2023-05-10T05:23:44.891Z,2.45
2023-05-10T05:26:11.976Z,2.90
2023-05-10T05:28:39.457Z,2.30
2023-05-10T05:31:07.153Z,2.50
2023-05-10T05:33:34.616Z,2.70
2023-05-10T05:36:03.380Z,2.63
2023-05-10T05:38:30.253Z,2.22
2023-05-10T05:40:57.249Z,2.67
2023-05-10T05:43:24.366Z,2.95
2023-05-10T05:46:09.945Z,2.35
2023-05-10T05:48:36.788Z,2.90
2023-05-10T05:51:05.105Z,2.90
2023-05-10T05:53:33.403Z,3.22
2023-05-10T05:56:00.306Z,3.70
2023-05-10T05:58:27.164Z,3.83
2023-05-10T06:00:54.017Z,3.83
2023-05-10T06:03:21.175Z,4.00
2023-05-10T06:05:48.386Z,4.57
2023-05-10T06:08:15.242Z,3.70
2023-05-10T06:10:42.023Z,4.00
2023-05-10T06:13:08.949Z,4.57
2023-05-10T06:15:35.903Z,4.43
2023-05-10T06:18:02.784Z,3.88
2023-05-10T06:20:29.774Z,5.10
2023-05-10T06:22:56.540Z,4.85
2023-05-10T06:25:23.332Z,4.97
2023-05-10T06:27:53.437Z,4.15
2023-05-10T06:30:21.343Z,5.30
2023-05-10T06:32:48.330Z,4.57
2023-05-10T06:35:15.467Z,4.50
2023-05-10T06:37:42.363Z,4.47
2023-05-10T06:40:10.418Z,3.22
2023-05-10T06:42:37.367Z,5.75
2023-05-10T06:45:04.828Z,5.88
2023-05-10T06:47:31.820Z,6.15
2023-05-10T06:49:58.604Z,4.57
2023-05-10T06:52:25.400Z,3.72
2023-05-10T06:54:52.256Z,3.97
2023-05-10T06:57:30.574Z,4.25
2023-05-10T07:00:00.180Z,3.88
2023-05-10T07:05:12.848Z,4.85
2023-05-10T07:07:39.646Z,4.25
2023-05-10T07:10:06.864Z,3.58
2023-05-10T07:12:34.062Z,5.10
2023-05-10T07:15:00.951Z,4.50
2023-05-10T07:17:27.776Z,4.55
2023-05-10T07:19:54.608Z,4.45
2023-05-10T07:22:21.407Z,2.83
2023-05-10T07:24:48.161Z,4.47
2023-05-10T07:27:15.042Z,3.60
2023-05-10T07:29:41.985Z,4.22
2023-05-10T07:32:09.017Z,2.28
2023-05-10T07:34:35.956Z,2.65
2023-05-10T07:37:02.853Z,2.55
2023-05-10T07:39:29.799Z,2.42
2023-05-10T07:41:56.863Z,2.33
2023-05-10T07:44:24.200Z,2.67
2023-05-10T07:46:51.166Z,3.25
2023-05-10T07:49:17.982Z,3.40
2023-05-10T07:51:44.805Z,3.97
2023-05-10T07:54:11.776Z,4.22
2023-05-10T07:56:38.611Z,3.72
2023-05-10T07:59:07.477Z,2.83
2023-05-10T08:01:35.471Z,3.05
2023-05-10T08:04:03.178Z,4.78
2023-05-10T08:06:31.203Z,4.07
2023-05-10T08:08:58.535Z,3.03
2023-05-10T08:11:25.926Z,3.15
2023-05-10T08:16:37.184Z,3.35
2023-05-10T08:19:03.979Z,3.13
2023-05-10T08:21:32.336Z,3.22
2023-05-10T08:23:59.170Z,4.55
2023-05-10T08:26:26.116Z,3.58
2023-05-10T08:28:52.922Z,2.33
2023-05-10T08:31:19.965Z,3.50
2023-05-10T08:33:46.747Z,3.72
2023-05-10T08:36:15.337Z,4.03
2023-05-10T08:38:42.144Z,2.75
2023-05-10T08:41:09.434Z,3.00
2023-05-10T08:43:37.095Z,2.85
2023-05-10T08:46:06.390Z,3.78
2023-05-10T08:48:35.525Z,4.10
2023-05-10T08:51:04.706Z,4.72
2023-05-10T08:53:34.197Z,3.65
2023-05-10T08:56:03.460Z,5.97
2023-05-10T08:58:30.710Z,4.50
2023-05-10T09:00:58.876Z,5.38
2023-05-10T09:03:25.746Z,4.00
2023-05-10T09:05:52.924Z,3.47
2023-05-10T09:08:21.038Z,5.03
2023-05-10T09:10:49.330Z,4.60
2023-05-10T09:13:19.156Z,4.32
2023-05-10T09:15:46.676Z,3.03
2023-05-10T09:18:13.965Z,2.05
2023-05-10T09:20:41.393Z,4.88
2023-05-10T09:23:08.487Z,5.28
2023-05-10T09:25:35.707Z,3.78
2023-05-10T09:28:21.256Z,2.60
2023-05-10T09:30:54.764Z,2.75
2023-05-10T09:33:22.008Z,3.08
2023-05-10T09:35:52.647Z,2.15
2023-05-10T09:38:19.413Z,3.42
2023-05-10T09:40:57.411Z,3.38
2023-05-10T09:43:24.486Z,2.05
2023-05-10T09:45:51.417Z,1.55
2023-05-10T09:48:18.363Z,2.60
2023-05-10T09:50:45.237Z,1.65
2023-05-10T09:53:15.616Z,2.80
2023-05-10T09:55:47.690Z,2.47
2023-05-10T09:58:37.768Z,2.72
2023-05-10T10:01:04.859Z,3.00
2023-05-10T10:03:32.130Z,3.10
2023-05-10T10:05:58.919Z,3.83
2023-05-10T10:08:26.198Z,3.15
2023-05-10T10:10:53.259Z,3.78
2023-05-10T10:13:20.384Z,3.25
2023-05-10T10:15:52.190Z,4.75
2023-05-10T10:18:24.564Z,3.42
2023-05-10T10:20:51.826Z,3.60
2023-05-10T10:23:18.668Z,3.17
2023-05-10T10:25:48.837Z,4.35
2023-05-10T10:28:53.015Z,3.47
2023-05-10T10:31:40.333Z,4.32
2023-05-10T10:34:10.812Z,3.53
2023-05-10T10:36:48.189Z,2.80
2023-05-10T10:39:16.158Z,3.00
2023-05-10T10:41:52.694Z,3.40
2023-05-10T10:44:37.783Z,2.55
2023-05-10T10:47:15.025Z,3.13
2023-05-10T10:49:41.953Z,2.47
2023-05-10T10:52:36.034Z,2.80
2023-05-10T10:55:06.411Z,1.48
2023-05-10T10:58:03.784Z,2.38
2023-05-10T11:00:33.235Z,2.70
2023-05-10T11:03:07.325Z,2.45
2023-05-10T11:05:36.528Z,2.20
2023-05-10T11:08:28.861Z,1.50
2023-05-10T11:11:01.558Z,2.53
2023-05-10T11:13:45.507Z,2.47
2023-05-10T11:16:21.343Z,2.30
2023-05-10T11:19:05.847Z,2.20
2023-05-10T11:21:33.767Z,2.15
2023-05-10T11:24:02.254Z,2.53
2023-05-10T11:26:34.815Z,2.65
2023-05-10T11:29:21.169Z,2.38
2023-05-10T11:31:49.589Z,2.88
2023-05-10T11:34:31.412Z,2.50
2023-05-10T11:36:59.203Z,2.38
2023-05-10T11:39:29.885Z,2.83
2023-05-10T11:41:57.510Z,3.30
2023-05-10T11:44:25.999Z,2.90
2023-05-10T11:47:12.989Z,3.38
2023-05-10T11:50:17.227Z,2.80
2023-05-10T11:55:28.183Z,2.90
2023-05-10T11:57:55.848Z,3.35
2023-05-10T12:00:23.080Z,2.67
2023-05-10T12:02:50.240Z,4.35
2023-05-10T12:05:17.860Z,3.17
2023-05-10T12:08:13.582Z,3.67
2023-05-10T12:10:40.894Z,3.85
2023-05-10T12:13:13.416Z,4.18
2023-05-10T12:15:40.169Z,5.20
2023-05-10T12:18:09.255Z,4.88
2023-05-10T12:20:36.170Z,5.63
2023-05-10T12:23:04.482Z,4.05
2023-05-10T12:25:33.024Z,5.43
2023-05-10T12:28:04.068Z,5.18
2023-05-10T12:30:32.700Z,5.18
2023-05-10T12:35:54.897Z,3.88
2023-05-10T12:38:35.961Z,4.50
2023-05-10T12:41:05.255Z,3.85
2023-05-10T12:43:34.004Z,4.32
2023-05-10T12:46:11.824Z,3.65
2023-05-10T12:48:40.592Z,3.97
2023-05-10T12:51:12.863Z,4.78
2023-05-10T12:53:43.421Z,4.65
2023-05-10T12:56:11.529Z,3.95
2023-05-10T12:58:39.306Z,4.13
2023-05-10T13:01:06.695Z,5.25
2023-05-10T13:03:33.736Z,4.22
2023-05-10T13:06:00.678Z,4.88
2023-05-10T13:08:46.071Z,5.38
2023-05-10T13:11:31.379Z,4.78
2023-05-10T13:16:42.959Z,5.38
2023-05-10T13:19:28.276Z,4.38
2023-05-10T13:21:55.059Z,4.65
2023-05-10T13:24:22.053Z,5.18
2023-05-10T13:26:49.492Z,4.55
2023-05-10T13:29:18.410Z,5.63
2023-05-10T13:34:29.932Z,3.30
2023-05-10T13:36:57.250Z,4.53
2023-05-10T13:39:24.100Z,4.25
2023-05-10T13:41:50.803Z,5.32
2023-05-10T13:44:17.608Z,4.38
2023-05-10T13:46:44.629Z,3.67
2023-05-10T13:49:11.617Z,4.53
2023-05-10T13:51:38.473Z,4.05
2023-05-10T13:54:05.333Z,3.83
2023-05-10T13:56:32.156Z,4.05
2023-05-10T13:59:17.436Z,4.28
2023-05-10T14:01:44.681Z,4.80
2023-05-10T14:04:12.494Z,3.75
2023-05-10T14:06:39.311Z,5.18
2023-05-10T14:09:06.105Z,4.40
2023-05-10T14:11:33.215Z,4.90
2023-05-10T14:14:00.024Z,5.07
2023-05-10T14:16:27.450Z,6.30
2023-05-10T14:18:54.367Z,5.28
2023-05-10T14:21:21.112Z,6.30
2023-05-10T14:23:48.037Z,5.30
2023-05-10T14:26:14.827Z,3.25
2023-05-10T14:28:41.703Z,4.35
2023-05-10T14:31:08.604Z,4.05
2023-05-10T14:36:19.756Z,3.90
2023-05-10T14:38:46.707Z,2.90
2023-05-10T14:41:16.081Z,2.53
2023-05-10T14:44:01.776Z,3.00
2023-05-10T14:46:28.951Z,1.77
2023-05-10T14:48:56.021Z,2.42
2023-05-10T14:51:23.023Z,2.08
2023-05-10T14:53:50.528Z,1.58
2023-05-10T14:56:17.416Z,1.95
2023-05-10T14:58:44.184Z,1.55
2023-05-10T15:01:29.720Z,1.67
2023-05-10T15:03:57.103Z,1.13
2023-05-10T15:06:26.288Z,1.48
2023-05-10T15:08:53.196Z,1.25
2023-05-10T15:11:19.991Z,1.08
2023-05-10T15:13:46.768Z,1.60
2023-05-10T15:16:13.533Z,1.27
2023-05-10T15:18:40.540Z,1.25
2023-05-10T15:21:07.429Z,1.85
2023-05-10T15:23:34.335Z,2.38
2023-05-10T15:26:01.903Z,1.80
2023-05-10T15:28:28.664Z,1.52
2023-05-10T15:30:57.221Z,1.95
2023-05-10T15:33:24.119Z,2.38
2023-05-10T15:36:09.789Z,1.90
2023-05-10T15:38:55.178Z,1.90
2023-05-10T15:41:22.089Z,2.40
2023-05-10T15:43:48.841Z,2.97
2023-05-10T15:46:15.876Z,2.60
2023-05-10T15:48:42.919Z,2.88
2023-05-10T15:51:09.700Z,3.28
2023-05-10T15:53:36.624Z,3.30
2023-05-10T15:56:04.180Z,3.38
2023-05-10T15:58:30.947Z,2.95
2023-05-10T16:00:58.066Z,3.42
2023-05-10T16:03:24.972Z,3.13
2023-05-10T16:05:52.038Z,3.28
2023-05-10T16:08:18.794Z,3.00
2023-05-10T16:10:45.823Z,2.90
2023-05-10T16:13:12.614Z,3.10
2023-05-10T16:15:39.399Z,3.13
2023-05-10T16:18:06.351Z,2.63
2023-05-10T16:20:33.373Z,3.38
2023-05-10T16:23:04.225Z,2.70
2023-05-10T16:25:31.782Z,2.33
2023-05-10T16:27:59.423Z,3.55
2023-05-10T16:30:27.556Z,2.92
2023-05-10T16:32:54.482Z,3.63
2023-05-10T16:35:22.674Z,2.85
2023-05-10T16:37:50.130Z,2.72
2023-05-10T16:40:17.881Z,3.85
2023-05-10T16:42:44.858Z,3.22
2023-05-10T16:45:12.390Z,1.83
2023-05-10T16:47:40.895Z,3.40
2023-05-10T16:50:08.724Z,2.92
2023-05-10T16:52:36.231Z,2.28
2023-05-10T16:55:24.734Z,2.78
2023-05-10T16:57:52.970Z,2.35
2023-05-10T17:00:20.958Z,2.47
2023-05-10T17:02:47.873Z,2.45
2023-05-10T17:05:14.849Z,1.60
2023-05-10T17:07:41.684Z,2.03
2023-05-10T17:10:08.861Z,2.15
2023-05-10T17:12:35.825Z,1.92
2023-05-10T17:15:02.695Z,3.13
2023-05-10T17:17:29.515Z,1.48
2023-05-10T17:19:56.344Z,1.48
2023-05-10T17:22:23.044Z,2.17
2023-05-10T17:24:49.933Z,2.38
2023-05-10T17:27:16.710Z,2.42
2023-05-10T17:29:43.683Z,1.85
2023-05-10T17:32:10.440Z,1.75
2023-05-10T17:34:38.609Z,2.53
2023-05-10T17:37:05.481Z,2.40
2023-05-10T17:39:32.346Z,1.95
2023-05-10T17:41:59.318Z,1.50
2023-05-10T17:44:26.357Z,2.40
2023-05-10T17:46:53.234Z,2.13
2023-05-10T17:49:22.614Z,2.35
2023-05-10T17:51:49.454Z,2.00
2023-05-10T17:54:16.354Z,1.95
2023-05-10T17:56:43.356Z,1.67
2023-05-10T17:59:10.134Z,2.33
2023-05-10T18:01:37.050Z,1.88
2023-05-10T18:04:04.686Z,2.15
2023-05-10T18:06:32.408Z,2.03
2023-05-10T18:08:59.176Z,2.30
2023-05-10T18:11:26.366Z,1.92
2023-05-10T18:13:53.201Z,1.80
2023-05-10T18:16:20.006Z,2.95
2023-05-10T18:18:46.877Z,2.38
2023-05-10T18:21:13.771Z,1.70
2023-05-10T18:23:40.629Z,2.58
2023-05-10T18:26:08.482Z,2.80
2023-05-10T18:28:35.242Z,1.92
2023-05-10T18:31:02.648Z,2.20
2023-05-10T18:33:29.528Z,2.92
2023-05-10T18:35:56.410Z,3.42
2023-05-10T18:38:23.201Z,2.38
2023-05-10T18:40:49.926Z,2.10
2023-05-10T18:43:16.809Z,2.63
2023-05-10T18:45:44.029Z,2.58
2023-05-10T18:48:10.975Z,2.38
2023-05-10T18:50:38.019Z,2.33
2023-05-10T18:53:04.970Z,1.77
2023-05-10T18:58:15.805Z,1.98
2023-05-10T19:00:43.372Z,2.30
2023-05-10T19:03:10.177Z,2.13
2023-05-10T19:05:36.926Z,2.53
2023-05-10T19:10:47.771Z,2.15
2023-05-10T19:13:17.800Z,2.00
2023-05-10T19:15:44.596Z,1.77
2023-05-10T19:18:11.570Z,2.20
2023-05-10T19:20:40.225Z,2.95
2023-05-10T19:23:10.100Z,2.30
2023-05-10T19:25:37.310Z,2.55
2023-05-10T19:28:04.161Z,1.85
2023-05-10T19:30:31.718Z,2.22
2023-05-10T19:32:58.582Z,2.00
2023-05-10T19:35:25.436Z,2.25
2023-05-10T19:37:52.197Z,2.85
2023-05-10T19:40:19.796Z,2.67
2023-05-10T19:42:46.676Z,2.92
2023-05-10T19:45:15.780Z,2.85
2023-05-10T19:48:01.732Z,2.25
2023-05-10T19:50:28.592Z,2.75
2023-05-10T19:52:55.422Z,3.63
2023-05-10T19:55:28.343Z,3.03
2023-05-10T19:57:55.418Z,2.83
2023-05-10T20:00:40.907Z,2.38
2023-05-10T20:03:09.305Z,2.97
2023-05-10T20:05:36.249Z,3.17
2023-05-10T20:08:03.058Z,2.22
2023-05-10T20:10:30.228Z,3.38
2023-05-10T20:12:58.755Z,2.90
2023-05-10T20:15:25.596Z,2.42
2023-05-10T20:17:55.314Z,2.85
2023-05-10T20:20:22.232Z,3.20
2023-05-10T20:22:49.639Z,3.58
2023-05-10T20:25:17.489Z,2.70
2023-05-10T20:27:44.572Z,3.13
2023-05-10T20:30:11.862Z,2.45
2023-05-10T20:32:39.103Z,2.65
2023-05-10T20:35:07.245Z,3.03
2023-05-10T20:37:34.197Z,3.20
2023-05-10T20:40:01.206Z,2.85
2023-05-10T20:42:27.973Z,2.40
2023-05-10T20:44:54.788Z,2.75
2023-05-10T20:47:23.549Z,2.30
2023-05-10T20:49:50.435Z,2.60
2023-05-10T20:52:17.489Z,2.70
2023-05-10T20:54:44.268Z,2.67
2023-05-10T20:57:13.010Z,3.10
2023-05-10T21:02:23.842Z,2.28
2023-05-10T21:04:50.728Z,2.15
2023-05-10T21:07:17.635Z,2.17
2023-05-10T21:09:44.416Z,2.80
2023-05-10T21:12:48.796Z,2.35
2023-05-10T21:15:15.666Z,2.67
2023-05-10T21:17:42.583Z,2.58
2023-05-10T21:20:09.941Z,3.13
2023-05-10T21:22:36.772Z,2.70
2023-05-10T21:25:03.704Z,2.63
2023-05-10T21:27:30.699Z,2.33
2023-05-10T21:29:57.456Z,2.88
2023-05-10T21:32:24.240Z,2.28
2023-05-10T21:35:09.627Z,3.00
2023-05-10T21:37:55.434Z,2.45
2023-05-10T21:40:40.949Z,2.53
2023-05-10T21:43:08.350Z,2.50
2023-05-10T21:45:36.496Z,2.35
2023-05-10T21:48:03.834Z,2.08
2023-05-10T21:50:30.687Z,2.22
2023-05-10T21:52:57.814Z,2.78
2023-05-10T21:55:24.711Z,3.40
2023-05-10T21:57:51.558Z,3.35
2023-05-10T22:00:19.719Z,2.97
2023-05-10T22:02:47.232Z,3.20
2023-05-10T22:05:14.253Z,3.10
2023-05-10T22:07:41.160Z,2.97
2023-05-10T22:10:09.593Z,3.05
2023-05-10T22:12:36.488Z,2.80
2023-05-10T22:17:33.283Z,2.50
2023-05-10T22:20:00.131Z,2.55
2023-05-10T22:22:26.959Z,3.00
2023-05-10T22:24:53.824Z,2.72
2023-05-10T22:27:20.726Z,2.85
2023-05-10T22:29:48.664Z,3.00
2023-05-10T22:32:15.679Z,1.67
2023-05-10T22:34:43.297Z,3.28
2023-05-10T22:37:13.756Z,2.50
2023-05-10T22:39:40.516Z,2.63
2023-05-10T22:42:07.231Z,2.65
2023-05-10T22:44:34.013Z,2.85
2023-05-10T22:47:00.816Z,2.08
2023-05-10T22:49:27.666Z,2.08
2023-05-10T22:51:54.423Z,1.92
2023-05-10T22:54:21.241Z,1.92
2023-05-10T22:56:48.201Z,2.00
2023-05-10T22:59:15.066Z,2.22
2023-05-10T23:01:41.845Z,2.65
2023-05-10T23:04:08.698Z,2.22
2023-05-10T23:06:35.528Z,2.13
2023-05-10T23:09:02.354Z,2.30
2023-05-10T23:11:29.218Z,2.63
2023-05-10T23:16:40.646Z,2.10
2023-05-10T23:19:07.588Z,1.92
2023-05-10T23:21:34.565Z,2.05
2023-05-10T23:24:01.368Z,1.50
2023-05-10T23:26:28.232Z,2.20
2023-05-10T23:28:54.973Z,2.10
2023-05-10T23:31:21.893Z,2.20
2023-05-10T23:33:48.636Z,1.77
2023-05-10T23:36:15.461Z,1.73
2023-05-10T23:38:42.337Z,1.52
2023-05-10T23:41:27.659Z,1.35
2023-05-10T23:43:54.498Z,1.08
2023-05-10T23:46:21.258Z,1.15
2023-05-10T23:48:48.119Z,1.70
2023-05-10T23:51:14.910Z,1.67
2023-05-10T23:53:41.637Z,2.42
2023-05-10T23:56:08.543Z,2.88
2023-05-10T23:58:35.333Z,2.67
